DAOO/ORN METAR and TAF weather

Enter ICAO airport designator
Station Type Date Time Source
DAOO METAR 2020/04/06 14:00 UTC NOAA

DAOO 061400Z 32010KT 9999 SCT026 BKN233 19/05 Q1022


Station Type Date Time Source
DAOO Decoded METAR 2020/04/06 14:00 UTC NOAA

Oran / Es Senia, Algeria (DAOO) 35-38N 000-36W 90M
Apr 06, 2020 - 10:00 AM EDT / 2020.04.06 1400 UTC
Wind: from the NW (320 degrees) at 12 MPH (10 KT):0
Visibility: greater than 7 mile(s):0
Sky conditions: mostly cloudy
Temperature: 66 F (19 C)
Dew Point: 41 F (5 C)
Relative Humidity: 39%
Pressure (altimeter): 30.18 in. Hg (1022 hPa)
ob: DAOO 061400Z 32010KT 9999 SCT026 BKN233 19/05 Q1022
cycle: 14

Station Type Date Time Source
DAOO TAF 2020/04/06 12:33 UTC NOAA

TAF DAOO 061100Z 0612/0712 05010KT 9999 SCT020 SCT100
BECMG 0619/0622 VRB02KT PROB40
TEMPO 0620/0702 FEW015CB PROB30
TEMPO 0703/0706 4000 BR SCT010

Example: see airport list